createdAt,value
2022-08-12T00:00:23.684Z,501.69
2022-08-12T00:01:08.904Z,520.59
2022-08-12T00:02:02.691Z,520.59
2022-08-12T00:02:39.109Z,507.81
2022-08-12T00:03:24.014Z,503.61
2022-08-12T00:04:09.250Z,504.08
2022-08-12T00:04:54.399Z,504.08
2022-08-12T00:05:39.026Z,475.29
2022-08-12T00:06:24.498Z,506.60
2022-08-12T00:07:09.137Z,500.06
2022-08-12T00:07:54.300Z,523.15
2022-08-12T00:08:39.355Z,510.71
2022-08-12T00:09:26.203Z,510.71
2022-08-12T00:10:09.673Z,510.71
2022-08-12T00:10:54.532Z,513.68
2022-08-12T00:11:39.519Z,517.34
2022-08-12T00:12:24.530Z,507.07
2022-08-12T00:13:09.697Z,522.12
2022-08-12T00:13:55.157Z,519.00
2022-08-12T00:14:39.826Z,524.70
2022-08-12T00:15:24.758Z,531.63
2022-08-12T00:16:09.987Z,522.28
2022-08-12T00:16:54.909Z,513.68
2022-08-12T00:17:39.941Z,513.68
2022-08-12T00:18:25.000Z,518.04
2022-08-12T00:19:09.957Z,519.54
2022-08-12T00:19:54.999Z,522.98
2022-08-12T00:20:40.162Z,497.44
2022-08-12T00:21:24.999Z,492.69
2022-08-12T00:22:10.162Z,472.93
2022-08-12T00:22:59.784Z,459.60
2022-08-12T00:23:40.376Z,480.00
2022-08-12T00:24:25.641Z,471.84
2022-08-12T00:25:10.491Z,458.71
2022-08-12T00:26:21.402Z,455.93
2022-08-12T00:26:40.913Z,452.13
2022-08-12T00:27:27.477Z,457.45
2022-08-12T00:28:10.621Z,444.59
2022-08-12T00:28:55.786Z,449.21
2022-08-12T00:29:42.613Z,469.99
2022-08-12T00:30:25.788Z,438.39
2022-08-12T00:31:10.844Z,437.67
2022-08-12T00:31:55.894Z,438.71
2022-08-12T00:32:40.958Z,440.12
2022-08-12T00:33:26.961Z,433.75
2022-08-12T00:34:11.072Z,469.24
2022-08-12T00:34:56.129Z,435.51
2022-08-12T00:35:41.209Z,461.24
2022-08-12T00:36:34.752Z,493.33
2022-08-12T00:37:13.035Z,481.59
2022-08-12T00:37:56.864Z,481.59
2022-08-12T00:38:41.405Z,525.43
2022-08-12T00:39:26.481Z,510.71
2022-08-12T00:40:11.938Z,520.40
2022-08-12T00:40:56.571Z,546.91
2022-08-12T00:41:41.632Z,510.39
2022-08-12T00:42:26.685Z,529.40
2022-08-12T00:43:11.641Z,529.40
2022-08-12T00:43:56.798Z,535.47
2022-08-12T00:44:43.142Z,535.47
2022-08-12T00:45:27.222Z,535.47
2022-08-12T00:46:11.968Z,541.97
2022-08-12T00:46:57.450Z,541.97
2022-08-12T00:47:42.390Z,541.97
2022-08-12T00:48:27.484Z,541.97
2022-08-12T00:49:12.401Z,541.97
2022-08-12T00:49:57.263Z,577.69
2022-08-12T00:50:42.309Z,573.22
2022-08-12T00:51:27.306Z,568.17
2022-08-12T00:52:12.354Z,564.57
2022-08-12T00:52:57.855Z,133.82
2022-08-12T00:53:42.956Z,133.82
2022-08-12T00:54:28.342Z,133.82
2022-08-12T00:55:12.653Z,156.66
2022-08-12T00:55:57.844Z,156.66
2022-08-12T00:56:43.064Z,156.66
2022-08-12T00:57:28.170Z,156.66
2022-08-12T00:58:13.181Z,156.66
2022-08-12T00:58:57.880Z,528.99
2022-08-12T00:59:43.049Z,523.15
2022-08-12T01:00:28.356Z,520.40
2022-08-12T01:01:13.557Z,538.08
2022-08-12T01:02:02.361Z,548.74
2022-08-12T01:02:43.230Z,520.40
2022-08-12T01:03:28.314Z,544.15
2022-08-12T01:04:13.426Z,545.02
2022-08-12T01:04:58.524Z,533.74
2022-08-12T01:05:43.542Z,527.66
2022-08-12T01:06:28.596Z,507.39
2022-08-12T01:07:13.659Z,531.13
2022-08-12T01:07:58.811Z,533.74
2022-08-12T01:08:43.662Z,542.42
2022-08-12T01:09:28.716Z,547.77
2022-08-12T01:10:14.431Z,573.22
2022-08-12T01:10:59.068Z,535.38
2022-08-12T01:11:43.994Z,535.38
2022-08-12T01:12:29.098Z,540.18
2022-08-12T01:13:19.479Z,544.65
2022-08-12T01:13:59.286Z,547.77
2022-08-12T01:14:44.137Z,530.95
2022-08-12T01:15:29.188Z,522.99
2022-08-12T01:16:14.406Z,529.47
2022-08-12T01:16:59.438Z,541.08
2022-08-12T01:17:44.366Z,551.96
2022-08-12T01:18:29.354Z,551.06
2022-08-12T01:19:15.246Z,548.19
2022-08-12T01:19:59.424Z,551.82
2022-08-12T01:20:44.401Z,571.50
2022-08-12T01:21:29.696Z,564.53
2022-08-12T01:22:14.573Z,548.64
2022-08-12T01:22:59.736Z,567.85
2022-08-12T01:23:44.689Z,563.27
2022-08-12T01:24:31.444Z,571.91
2022-08-12T01:25:14.797Z,582.10
2022-08-12T01:26:00.073Z,587.67
2022-08-12T01:26:45.019Z,566.93
2022-08-12T01:27:29.967Z,564.49
2022-08-12T01:28:15.030Z,549.26
2022-08-12T01:29:00.623Z,566.93
2022-08-12T01:29:45.248Z,549.10
2022-08-12T01:30:30.305Z,542.86
2022-08-12T01:31:16.435Z,558.04
2022-08-12T01:32:00.927Z,548.22
2022-08-12T01:32:45.578Z,516.34
2022-08-12T01:33:30.342Z,521.59
2022-08-12T01:34:28.487Z,526.41
2022-08-12T01:35:00.432Z,541.55
2022-08-12T01:35:45.403Z,527.27
2022-08-12T01:36:31.261Z,509.88
2022-08-12T01:37:15.712Z,526.41
2022-08-12T01:38:00.754Z,538.08
2022-08-12T01:38:45.921Z,556.62
2022-08-12T01:39:30.906Z,522.91
2022-08-12T01:40:33.986Z,540.68
2022-08-12T01:41:01.268Z,531.13
2022-08-12T01:41:50.477Z,539.80
2022-08-12T01:42:31.140Z,558.94
2022-08-12T01:43:16.160Z,567.86
2022-08-12T01:44:01.718Z,550.42
2022-08-12T01:44:46.266Z,539.29
2022-08-12T01:45:42.832Z,568.16
2022-08-12T01:46:16.307Z,574.51
2022-08-12T01:47:01.331Z,571.79
2022-08-12T01:47:46.499Z,569.98
2022-08-12T01:48:31.453Z,570.88
2022-08-12T01:49:17.327Z,570.88
2022-08-12T01:50:01.774Z,581.56
2022-08-12T01:50:46.637Z,578.82
2022-08-12T01:52:19.906Z,605.34
2022-08-12T01:52:22.359Z,580.25
2022-08-12T01:53:02.100Z,603.42
2022-08-12T01:53:50.433Z,583.03
2022-08-12T01:54:31.898Z,584.88
2022-08-12T01:55:16.866Z,570.98
2022-08-12T01:56:02.010Z,568.20
2022-08-12T01:56:46.965Z,569.13
2022-08-12T01:57:59.397Z,595.08
2022-08-12T01:58:17.038Z,572.83
2022-08-12T01:59:02.129Z,577.47
2022-08-12T01:59:47.253Z,588.59
2022-08-12T02:00:43.375Z,578.40
2022-08-12T02:01:17.321Z,603.42
2022-08-12T02:02:02.463Z,586.74
2022-08-12T02:02:47.411Z,568.76
2022-08-12T02:03:32.582Z,558.70
2022-08-12T02:04:17.425Z,591.37
2022-08-12T02:05:02.499Z,572.83
2022-08-12T02:05:47.537Z,582.48
2022-08-12T02:06:32.517Z,577.47
2022-08-12T02:07:17.770Z,583.96
2022-08-12T02:08:02.812Z,572.67
2022-08-12T02:08:47.676Z,588.59
2022-08-12T02:09:32.716Z,583.03
2022-08-12T02:10:49.415Z,561.61
2022-08-12T02:11:03.031Z,566.02
2022-08-12T02:11:48.026Z,583.03
2022-08-12T02:12:33.044Z,585.81
2022-08-12T02:13:18.109Z,586.63
2022-08-12T02:14:03.356Z,581.18
2022-08-12T02:14:48.112Z,582.90
2022-08-12T02:15:33.680Z,498.42
2022-08-12T02:16:18.328Z,548.19
2022-08-12T02:17:03.386Z,537.51
2022-08-12T02:17:55.069Z,570.05
2022-08-12T02:18:33.810Z,550.59
2022-08-12T02:19:22.549Z,512.94
2022-08-12T02:20:03.510Z,530.35
2022-08-12T02:20:52.710Z,551.06
2022-08-12T02:21:33.620Z,544.76
2022-08-12T02:22:18.572Z,549.26
2022-08-12T02:23:03.752Z,541.97
2022-08-12T02:23:48.997Z,559.27
2022-08-12T02:24:33.881Z,554.85
2022-08-12T02:25:18.911Z,553.70
2022-08-12T02:26:03.959Z,540.68
2022-08-12T02:26:48.906Z,522.98
2022-08-12T02:27:34.088Z,538.44
2022-08-12T02:28:19.070Z,527.27
2022-08-12T02:29:04.372Z,535.87
2022-08-12T02:29:49.131Z,508.24
2022-08-12T02:30:42.146Z,520.40
2022-08-12T02:31:19.168Z,534.60
2022-08-12T02:32:04.638Z,562.81
2022-08-12T02:32:49.258Z,555.73
2022-08-12T02:33:34.316Z,547.77
2022-08-12T02:34:19.297Z,552.68
2022-08-12T02:35:04.634Z,537.51
2022-08-12T02:35:49.484Z,546.43
2022-08-12T02:36:34.542Z,538.40
2022-08-12T02:37:19.716Z,543.86
2022-08-12T02:38:04.759Z,565.19
2022-08-12T02:38:49.710Z,551.79
2022-08-12T02:39:34.861Z,539.36
2022-08-12T02:40:19.930Z,542.06
2022-08-12T02:41:05.082Z,536.65
2022-08-12T02:41:49.940Z,549.10
2022-08-12T02:42:35.022Z,541.84
2022-08-12T02:43:20.064Z,551.39
2022-08-12T02:44:05.221Z,547.73
2022-08-12T02:44:50.157Z,551.39
2022-08-12T02:45:35.713Z,564.49
2022-08-12T02:46:20.281Z,556.15
2022-08-12T02:47:05.431Z,565.42
2022-08-12T02:48:00.252Z,544.76
2022-08-12T02:48:35.460Z,572.83
2022-08-12T02:49:20.405Z,550.47
2022-08-12T02:50:05.449Z,556.15
2022-08-12T02:50:51.028Z,544.99
2022-08-12T02:51:35.871Z,546.82
2022-08-12T02:52:20.735Z,537.67
2022-08-12T02:53:05.681Z,556.87
2022-08-12T02:54:05.553Z,545.90
2022-08-12T02:54:35.805Z,555.22
2022-08-12T02:55:34.630Z,544.07
2022-08-12T02:56:05.909Z,545.90
2022-08-12T02:56:51.204Z,537.67
2022-08-12T02:57:35.914Z,551.52
2022-08-12T02:58:20.978Z,533.05
2022-08-12T02:59:06.073Z,555.22
2022-08-12T02:59:50.989Z,553.37
2022-08-12T03:00:36.050Z,559.62
2022-08-12T03:01:21.267Z,567.27
2022-08-12T03:02:06.148Z,567.27
2022-08-12T03:02:51.211Z,550.59
2022-08-12T03:03:36.580Z,559.59
2022-08-12T03:04:21.326Z,558.65
2022-08-12T03:05:06.380Z,553.06
2022-08-12T03:05:52.509Z,559.62
2022-08-12T03:06:36.500Z,563.32
2022-08-12T03:07:21.655Z,548.19
2022-08-12T03:08:06.634Z,559.59
2022-08-12T03:08:53.780Z,559.59
2022-08-12T03:09:49.920Z,556.87
2022-08-12T03:10:36.873Z,554.30
2022-08-12T03:11:11.962Z,558.93
2022-08-12T03:11:51.894Z,544.07
2022-08-12T03:12:40.737Z,578.40
2022-08-12T03:13:21.995Z,569.13
2022-08-12T03:14:06.956Z,549.66
2022-08-12T03:14:52.006Z,551.39
2022-08-12T03:15:37.073Z,549.66
2022-08-12T03:16:22.123Z,561.45
2022-08-12T03:17:07.388Z,579.32
2022-08-12T03:18:24.240Z,555.85
2022-08-12T03:18:37.291Z,570.78
2022-08-12T03:19:22.858Z,565.18
2022-08-12T03:20:09.281Z,521.54
2022-08-12T03:20:52.565Z,544.06
2022-08-12T03:22:05.809Z,570.32
2022-08-12T03:22:22.674Z,546.82
2022-08-12T03:23:07.628Z,560.94
2022-08-12T03:23:52.693Z,557.19
2022-08-12T03:24:37.744Z,550.62
2022-08-12T03:25:22.799Z,553.44
2022-08-12T03:26:07.958Z,563.02
2022-08-12T03:26:53.020Z,553.59
2022-08-12T03:27:38.073Z,549.82
2022-08-12T03:28:23.948Z,535.67
2022-08-12T03:29:08.182Z,533.78
2022-08-12T03:29:53.143Z,533.78
2022-08-12T03:30:38.527Z,544.99
2022-08-12T03:31:23.249Z,552.50
2022-08-12T03:32:08.644Z,535.34
2022-08-12T03:32:53.471Z,553.37
2022-08-12T03:33:38.417Z,534.83
2022-08-12T03:34:23.608Z,539.50
2022-08-12T03:35:08.568Z,544.07
2022-08-12T03:35:53.602Z,540.02
2022-08-12T03:36:38.764Z,542.46
2022-08-12T03:37:23.698Z,536.76
2022-08-12T03:38:09.565Z,544.07
2022-08-12T03:38:53.825Z,532.18
2022-08-12T03:39:38.934Z,537.67
2022-08-12T03:40:23.929Z,533.10
2022-08-12T03:41:09.105Z,545.90
2022-08-12T03:41:54.057Z,532.76
2022-08-12T03:42:39.479Z,524.05
2022-08-12T03:43:24.261Z,515.91
2022-08-12T03:44:09.212Z,519.85
2022-08-12T03:44:54.535Z,504.94
2022-08-12T03:45:52.242Z,480.41
2022-08-12T03:46:24.377Z,517.68
2022-08-12T03:47:09.337Z,516.80
2022-08-12T03:47:54.386Z,523.22
2022-08-12T03:48:39.489Z,524.11
2022-08-12T03:49:24.503Z,519.65
2022-08-12T03:50:10.075Z,525.90
2022-08-12T03:50:54.610Z,535.72
2022-08-12T03:51:39.785Z,527.68
2022-08-12T03:52:24.726Z,533.04
2022-08-12T03:53:09.901Z,509.72
2022-08-12T03:53:55.454Z,507.95
2022-08-12T03:54:42.495Z,514.14
2022-08-12T03:55:24.952Z,517.25
2022-08-12T03:56:09.905Z,504.23
2022-08-12T03:56:54.966Z,505.97
2022-08-12T03:57:41.413Z,506.83
2022-08-12T03:58:25.078Z,497.29
2022-08-12T03:59:10.643Z,526.53
2022-08-12T03:59:55.594Z,496.44
2022-08-12T04:00:40.402Z,127.04
2022-08-12T04:01:25.388Z,482.28
2022-08-12T04:02:10.680Z,482.28
2022-08-12T04:02:55.431Z,500.87
2022-08-12T04:03:40.501Z,495.56
2022-08-12T04:04:25.627Z,491.13
2022-08-12T04:05:10.619Z,491.21
2022-08-12T04:05:56.770Z,474.03
2022-08-12T04:06:40.832Z,474.03
2022-08-12T04:07:25.757Z,474.89
2022-08-12T04:08:10.910Z,485.19
2022-08-12T04:08:55.889Z,480.04
2022-08-12T04:09:41.018Z,470.59
2022-08-12T04:10:25.981Z,467.08
2022-08-12T04:11:11.163Z,475.75
2022-08-12T04:11:56.193Z,466.23
2022-08-12T04:12:41.938Z,460.29
2022-08-12T04:13:26.320Z,399.01
2022-08-12T04:14:11.265Z,368.59
2022-08-12T04:14:57.059Z,368.59
2022-08-12T04:15:41.474Z,379.98
2022-08-12T04:16:26.663Z,344.29
2022-08-12T04:17:11.735Z,362.32
2022-08-12T04:18:07.029Z,362.32
2022-08-12T04:18:41.852Z,408.72
2022-08-12T04:19:26.694Z,391.30
2022-08-12T04:20:11.842Z,393.42
2022-08-12T04:20:57.620Z,388.47
2022-08-12T04:21:42.122Z,400.18
2022-08-12T04:22:27.514Z,464.16
2022-08-12T04:23:11.940Z,486.87
2022-08-12T04:23:57.110Z,486.87
2022-08-12T04:24:43.926Z,494.67
2022-08-12T04:25:27.219Z,481.40
2022-08-12T04:26:12.056Z,467.08
2022-08-12T04:26:57.172Z,486.71
2022-08-12T04:27:42.908Z,487.59
2022-08-12T04:28:27.246Z,486.71
2022-08-12T04:29:12.203Z,486.71
2022-08-12T04:30:32.969Z,490.18
2022-08-12T04:30:44.598Z,491.97
2022-08-12T04:31:27.461Z,493.76
2022-08-12T04:32:12.426Z,494.33
2022-08-12T04:32:57.485Z,497.04
2022-08-12T04:33:42.520Z,503.72
2022-08-12T04:34:27.585Z,498.27
2022-08-12T04:35:12.700Z,498.27
2022-08-12T04:35:57.934Z,502.01
2022-08-12T04:36:42.861Z,509.80
2022-08-12T04:37:27.910Z,507.50
2022-08-12T04:38:13.008Z,509.80
2022-08-12T04:38:59.644Z,514.82
2022-08-12T04:39:42.921Z,511.66
2022-08-12T04:40:28.819Z,505.17
2022-08-12T04:41:13.193Z,518.55
2022-08-12T04:41:58.609Z,509.80
2022-08-12T04:42:43.093Z,511.09
2022-08-12T04:44:00.932Z,512.02
2022-08-12T04:44:13.249Z,510.16
2022-08-12T04:44:58.266Z,518.73
2022-08-12T04:45:43.331Z,514.98
2022-08-12T04:46:33.651Z,516.68
2022-08-12T04:47:13.330Z,516.68
2022-08-12T04:47:58.301Z,503.72
2022-08-12T04:48:43.598Z,519.48
2022-08-12T04:49:28.613Z,525.08
2022-08-12T04:50:34.136Z,517.62
2022-08-12T04:50:58.692Z,524.15
2022-08-12T04:51:43.679Z,518.55
2022-08-12T04:52:33.067Z,517.62
2022-08-12T04:53:14.120Z,526.01
2022-08-12T04:53:58.762Z,521.35
2022-08-12T04:54:43.840Z,507.35
2022-08-12T04:55:28.882Z,514.82
2022-08-12T04:56:14.006Z,515.75
2022-08-12T04:57:04.422Z,526.01
2022-08-12T04:57:44.031Z,517.62
2022-08-12T04:58:29.717Z,509.22
2022-08-12T04:59:14.130Z,509.22
2022-08-12T04:59:59.916Z,505.17
2022-08-12T05:00:44.345Z,501.46
2022-08-12T05:01:29.340Z,502.39
2022-08-12T05:02:16.578Z,504.56
2022-08-12T05:02:59.610Z,502.39
2022-08-12T05:03:46.363Z,510.16
2022-08-12T05:04:29.629Z,508.29
2022-08-12T05:05:14.486Z,503.63
2022-08-12T05:05:59.854Z,507.02
2022-08-12T05:06:44.617Z,507.02
2022-08-12T05:07:29.917Z,489.83
2022-08-12T05:08:14.935Z,505.17
2022-08-12T05:09:00.016Z,504.24
2022-08-12T05:09:59.425Z,504.24
2022-08-12T05:10:34.050Z,506.10
2022-08-12T05:11:14.929Z,502.01
2022-08-12T05:12:00.497Z,503.32
2022-08-12T05:12:45.351Z,484.83
2022-08-12T05:13:30.206Z,499.27
2022-08-12T05:14:15.305Z,496.52
2022-08-12T05:15:00.641Z,496.52
2022-08-12T05:16:02.369Z,502.01
2022-08-12T05:16:32.419Z,499.27
2022-08-12T05:17:15.490Z,496.52
2022-08-12T05:18:02.329Z,497.44
2022-08-12T05:18:45.976Z,491.95
2022-08-12T05:19:30.463Z,499.27
2022-08-12T05:20:15.515Z,499.27
2022-08-12T05:21:00.983Z,502.01
2022-08-12T05:21:45.627Z,501.09
2022-08-12T05:22:30.737Z,499.27
2022-08-12T05:23:15.847Z,498.27
2022-08-12T05:24:01.040Z,500.18
2022-08-12T05:24:45.850Z,508.41
2022-08-12T05:25:31.017Z,498.35
2022-08-12T05:26:15.958Z,513.90
2022-08-12T05:27:01.264Z,506.58
2022-08-12T05:27:55.513Z,517.55
2022-08-12T05:28:31.227Z,490.18
2022-08-12T05:30:05.368Z,504.75
2022-08-12T05:30:07.638Z,505.67
2022-08-12T05:30:46.304Z,510.73
2022-08-12T05:31:47.541Z,505.67
2022-08-12T05:32:16.423Z,507.02
2022-08-12T05:33:01.811Z,502.92
2022-08-12T05:33:46.660Z,502.92
2022-08-12T05:34:31.576Z,500.18
2022-08-12T05:35:16.639Z,500.18
2022-08-12T05:36:01.691Z,509.80
2022-08-12T05:36:46.709Z,508.88
2022-08-12T05:37:31.708Z,507.95
2022-08-12T05:38:16.937Z,510.73
2022-08-12T05:39:01.936Z,493.43
2022-08-12T05:39:46.936Z,508.88
2022-08-12T05:40:31.846Z,495.23
2022-08-12T05:41:16.890Z,512.95
2022-08-12T05:42:02.589Z,512.95
2022-08-12T05:42:47.703Z,521.35
2022-08-12T05:43:31.961Z,520.41
2022-08-12T05:44:17.000Z,520.41
2022-08-12T05:45:02.812Z,514.82
2022-08-12T05:45:47.012Z,498.27
2022-08-12T05:46:32.170Z,513.10
2022-08-12T05:47:17.224Z,513.10
2022-08-12T05:48:02.519Z,514.98
2022-08-12T05:48:47.337Z,516.81
2022-08-12T05:49:33.777Z,512.95
2022-08-12T05:50:17.595Z,523.20
2022-08-12T05:51:02.714Z,521.30
2022-08-12T05:51:47.465Z,526.99
2022-08-12T05:52:32.520Z,525.30
2022-08-12T05:53:18.087Z,519.64
2022-08-12T05:54:02.744Z,131.19
2022-08-12T05:54:56.509Z,158.35
2022-08-12T05:55:32.690Z,160.16
2022-08-12T05:56:19.640Z,160.16
2022-08-12T05:57:03.447Z,160.16
2022-08-12T05:57:48.221Z,160.16
2022-08-12T05:58:33.175Z,159.26
2022-08-12T05:59:18.332Z,159.26
2022-08-12T06:00:03.766Z,159.26
2022-08-12T06:00:50.508Z,159.26
2022-08-12T06:02:12.713Z,508.98
2022-08-12T06:02:18.948Z,547.84
2022-08-12T06:03:03.474Z,557.32
2022-08-12T06:03:48.571Z,567.74
2022-08-12T06:04:35.788Z,567.74
2022-08-12T06:05:18.889Z,567.74
2022-08-12T06:06:04.147Z,143.18
2022-08-12T06:06:48.711Z,256.71
2022-08-12T06:07:48.732Z,205.17
2022-08-12T06:08:19.047Z,169.48
2022-08-12T06:09:04.380Z,169.48
2022-08-12T06:09:48.952Z,169.48
2022-08-12T06:10:33.940Z,157.29
2022-08-12T06:11:18.931Z,140.39
2022-08-12T06:12:06.567Z,140.39
2022-08-12T06:12:49.146Z,140.39
2022-08-12T06:13:52.815Z,140.39
2022-08-12T06:14:19.369Z,140.39
2022-08-12T06:15:04.427Z,140.39
2022-08-12T06:15:49.712Z,140.39
2022-08-12T06:16:35.552Z,140.39
2022-08-12T06:17:20.820Z,140.39
2022-08-12T06:18:05.050Z,140.39
2022-08-12T06:18:50.208Z,140.39
2022-08-12T06:20:26.797Z,140.39
2022-08-12T06:20:28.645Z,140.39
2022-08-12T06:21:05.287Z,140.39
2022-08-12T06:21:50.028Z,140.39
2022-08-12T06:22:34.719Z,567.74
2022-08-12T06:23:20.067Z,567.74
2022-08-12T06:24:05.295Z,596.78
2022-08-12T06:24:50.075Z,596.78
2022-08-12T06:25:34.901Z,595.82
2022-08-12T06:26:20.064Z,598.07
2022-08-12T06:27:05.530Z,598.07
2022-08-12T06:28:07.591Z,603.76
2022-08-12T06:28:35.144Z,595.23
2022-08-12T06:30:07.362Z,605.66
2022-08-12T06:30:10.147Z,604.71
2022-08-12T06:31:14.842Z,597.12
2022-08-12T06:31:35.452Z,590.49
2022-08-12T06:32:20.715Z,590.49
2022-08-12T06:33:20.904Z,590.49
2022-08-12T06:33:55.345Z,590.49
2022-08-12T06:35:25.702Z,590.49
2022-08-12T06:35:26.810Z,590.49
2022-08-12T06:36:06.334Z,590.49
2022-08-12T06:36:51.155Z,590.49
2022-08-12T06:37:35.836Z,590.09
2022-08-12T06:38:21.600Z,590.09
2022-08-12T06:39:06.130Z,592.96
2022-08-12T06:39:52.226Z,592.96
2022-08-12T06:40:36.458Z,592.96
2022-08-12T06:41:21.495Z,592.96
2022-08-12T06:42:31.828Z,592.96
2022-08-12T06:42:51.500Z,592.96
2022-08-12T06:44:04.933Z,597.12
2022-08-12T06:44:21.413Z,581.88
2022-08-12T06:45:07.326Z,581.88
2022-08-12T06:45:51.657Z,571.71
2022-08-12T06:46:36.486Z,582.10
2022-08-12T06:47:21.961Z,565.42
2022-08-12T06:48:06.593Z,581.18
2022-08-12T06:48:51.855Z,578.40
2022-08-12T06:49:36.617Z,559.86
2022-08-12T06:50:21.790Z,560.79
2022-08-12T06:51:06.823Z,548.64
2022-08-12T06:51:56.325Z,560.97
2022-08-12T06:52:37.101Z,569.13
2022-08-12T06:53:22.008Z,550.01
2022-08-12T06:54:07.165Z,557.72
2022-08-12T06:54:52.088Z,580.10
2022-08-12T06:55:36.954Z,555.31
2022-08-12T06:56:30.458Z,582.51
2022-08-12T06:58:05.340Z,575.95
2022-08-12T06:58:06.943Z,562.08
2022-08-12T06:58:37.178Z,584.71
2022-08-12T06:59:22.574Z,584.71
2022-08-12T07:00:07.879Z,563.00
2022-08-12T07:00:52.725Z,563.00
2022-08-12T07:01:37.714Z,563.00
2022-08-12T07:02:22.372Z,555.42
2022-08-12T07:03:22.413Z,556.37
2022-08-12T07:03:52.501Z,547.46
2022-08-12T07:04:38.291Z,549.73
2022-08-12T07:05:22.622Z,571.53
2022-08-12T07:06:07.639Z,541.20
2022-08-12T07:06:52.912Z,557.32
2022-08-12T07:07:37.656Z,553.53
2022-08-12T07:08:22.819Z,544.16
2022-08-12T07:09:08.073Z,544.16
2022-08-12T07:09:59.497Z,544.16
2022-08-12T07:10:37.895Z,496.17
2022-08-12T07:11:22.929Z,531.61
2022-08-12T07:12:07.986Z,547.81
2022-08-12T07:12:53.298Z,547.81
2022-08-12T07:14:02.635Z,538.54
2022-08-12T07:14:23.057Z,534.83
2022-08-12T07:15:08.138Z,521.35
2022-08-12T07:15:53.279Z,545.47
2022-08-12T07:16:38.223Z,536.39
2022-08-12T07:17:23.692Z,543.16
2022-08-12T07:18:08.345Z,525.50
2022-08-12T07:18:53.518Z,524.60
2022-08-12T07:19:40.368Z,524.60
2022-08-12T07:20:50.737Z,527.61
2022-08-12T07:21:08.565Z,530.36
2022-08-12T07:22:00.418Z,512.34
2022-08-12T07:22:38.773Z,537.61
2022-08-12T07:23:23.636Z,530.20
2022-08-12T07:24:08.706Z,525.50
2022-08-12T07:24:53.668Z,528.81
2022-08-12T07:25:40.865Z,519.48
2022-08-12T07:26:23.856Z,521.54
2022-08-12T07:27:08.831Z,521.54
2022-08-12T07:27:54.034Z,521.54
2022-08-12T07:28:39.121Z,548.87
2022-08-12T07:29:24.255Z,534.73
2022-08-12T07:30:09.239Z,536.61
2022-08-12T07:30:53.983Z,499.83
2022-08-12T07:31:39.142Z,514.92
2022-08-12T07:32:24.107Z,502.39
2022-08-12T07:33:09.285Z,486.63
2022-08-12T07:33:54.315Z,495.12
2022-08-12T07:34:39.411Z,502.39
2022-08-12T07:35:24.350Z,514.92
2022-08-12T07:36:10.753Z,507.02
2022-08-12T07:36:54.447Z,510.29
2022-08-12T07:37:39.392Z,499.27
2022-08-12T07:38:29.470Z,509.35
2022-08-12T07:39:09.377Z,507.36
2022-08-12T07:40:00.613Z,504.24
2022-08-12T07:40:39.516Z,497.44
2022-08-12T07:41:24.545Z,481.40
2022-08-12T07:42:09.631Z,517.33
2022-08-12T07:42:54.580Z,518.65
2022-08-12T07:43:39.769Z,520.45
2022-08-12T07:44:24.703Z,529.47
2022-08-12T07:45:09.878Z,497.22
2022-08-12T07:45:54.914Z,524.11
2022-08-12T07:46:40.170Z,531.26
2022-08-12T07:47:25.344Z,531.26
2022-08-12T07:48:10.182Z,496.44
2022-08-12T07:48:55.262Z,491.13
2022-08-12T07:50:04.857Z,494.67
2022-08-12T07:50:25.146Z,492.02
2022-08-12T07:51:10.215Z,481.40
2022-08-12T07:51:55.276Z,482.28
2022-08-12T07:52:40.405Z,484.83
2022-08-12T07:53:25.508Z,484.83
2022-08-12T07:54:10.767Z,484.83
2022-08-12T07:54:56.348Z,533.95
2022-08-12T07:55:40.640Z,535.75
2022-08-12T07:56:25.915Z,533.95
2022-08-12T07:57:10.761Z,543.65
2022-08-12T07:57:55.766Z,545.47
2022-08-12T07:58:42.932Z,533.67
2022-08-12T07:59:25.809Z,532.76
2022-08-12T08:00:10.896Z,527.68
2022-08-12T08:00:56.345Z,537.67
2022-08-12T08:01:41.007Z,541.33
2022-08-12T08:02:26.603Z,540.41
2022-08-12T08:03:11.106Z,538.59
2022-08-12T08:03:56.198Z,533.10
2022-08-12T08:04:41.216Z,554.30
2022-08-12T08:05:26.287Z,539.47
2022-08-12T08:06:19.942Z,546.88
2022-08-12T08:06:56.493Z,546.88
2022-08-12T08:07:41.557Z,527.65
2022-08-12T08:08:26.663Z,551.52
2022-08-12T08:09:11.559Z,541.32
2022-08-12T08:09:58.299Z,550.59
2022-08-12T08:10:41.588Z,548.39
2022-08-12T08:11:26.771Z,538.13
2022-08-12T08:12:18.540Z,531.12
2022-08-12T08:12:57.021Z,520.06
2022-08-12T08:13:42.117Z,537.61
2022-08-12T08:14:27.049Z,527.42
2022-08-12T08:15:12.009Z,530.20
2022-08-12T08:16:03.365Z,520.93
2022-08-12T08:16:42.262Z,532.18
2022-08-12T08:17:27.175Z,536.76
2022-08-12T08:18:14.051Z,547.81
2022-08-12T08:18:57.293Z,543.17
2022-08-12T08:20:02.362Z,546.53
2022-08-12T08:20:27.742Z,552.12
2022-08-12T08:21:12.939Z,546.87
2022-08-12T08:21:57.411Z,542.18
2022-08-12T08:22:42.791Z,535.61
2022-08-12T08:23:34.964Z,529.99
2022-08-12T08:24:12.478Z,530.01
2022-08-12T08:24:57.555Z,529.07
2022-08-12T08:25:42.489Z,532.84
2022-08-12T08:26:27.552Z,529.07
2022-08-12T08:27:12.770Z,525.56
2022-08-12T08:27:57.558Z,548.87
2022-08-12T08:28:42.794Z,530.95
2022-08-12T08:29:27.781Z,531.90
2022-08-12T08:30:12.834Z,530.01
2022-08-12T08:30:57.989Z,531.90
2022-08-12T08:31:45.353Z,530.95
2022-08-12T08:32:28.132Z,529.05
2022-08-12T08:33:22.650Z,529.99
2022-08-12T08:34:04.885Z,534.68
2022-08-12T08:34:52.966Z,522.48
2022-08-12T08:35:38.750Z,523.42
2022-08-12T08:36:23.998Z,521.54
2022-08-12T08:36:58.657Z,534.68
2022-08-12T08:37:43.629Z,522.48
2022-08-12T08:38:32.828Z,529.05
2022-08-12T08:39:13.797Z,542.18
2022-08-12T08:39:58.865Z,517.22
2022-08-12T08:40:43.981Z,529.07
2022-08-12T08:42:18.207Z,522.47
2022-08-12T08:42:19.113Z,530.95
2022-08-12T08:42:59.123Z,517.75
2022-08-12T08:43:44.643Z,517.75
2022-08-12T08:44:29.029Z,513.98
2022-08-12T08:45:14.170Z,497.95
2022-08-12T08:45:59.119Z,497.00
2022-08-12T08:46:44.411Z,489.46
2022-08-12T08:47:29.125Z,497.95
2022-08-12T08:48:14.278Z,501.84
2022-08-12T08:49:00.658Z,496.06
2022-08-12T08:49:44.298Z,491.27
2022-08-12T08:50:29.457Z,468.71
2022-08-12T08:51:14.549Z,466.83
2022-08-12T08:51:59.568Z,446.08
2022-08-12T08:52:44.621Z,448.38
2022-08-12T08:53:29.685Z,443.69
2022-08-12T08:54:14.779Z,447.44
2022-08-12T08:54:59.795Z,453.07
2022-08-12T08:56:04.216Z,439.93
2022-08-12T08:56:29.958Z,455.88
2022-08-12T08:57:14.972Z,452.13
2022-08-12T09:19:26.828Z,499.18
2022-08-12T09:20:20.900Z,501.00
2022-08-12T09:21:06.393Z,449.26
2022-08-12T09:21:54.612Z,417.50
2022-08-12T09:22:49.073Z,426.53
2022-08-12T09:23:59.745Z,476.41
2022-08-12T09:24:06.020Z,454.71
2022-08-12T09:24:50.166Z,454.71
2022-08-12T09:25:35.945Z,488.29
2022-08-12T09:26:20.287Z,488.29
2022-08-12T09:27:05.334Z,482.63
2022-08-12T09:28:04.245Z,482.63
2022-08-12T09:28:37.125Z,482.63
2022-08-12T09:30:08.986Z,398.22
2022-08-12T09:30:10.029Z,394.87
2022-08-12T09:30:50.441Z,385.88
2022-08-12T09:32:03.283Z,385.88
2022-08-12T09:32:31.315Z,429.16
2022-08-12T09:33:18.996Z,423.37
2022-08-12T09:34:25.722Z,421.75
2022-08-12T09:34:50.886Z,427.31
2022-08-12T09:35:31.202Z,332.76
2022-08-12T09:36:31.163Z,334.62
2022-08-12T09:37:02.612Z,380.96
2022-08-12T09:37:58.330Z,319.90
2022-08-12T09:38:35.639Z,310.40
2022-08-12T09:40:02.099Z,340.41
2022-08-12T09:40:57.912Z,387.05
2022-08-12T09:42:07.368Z,365.76
2022-08-12T09:42:09.270Z,343.98
2022-08-12T09:43:18.511Z,498.03
